sensor_id;sensor_type;location;lat;lon;timestamp;P1;durP1;ratioP1;P2;durP2;ratioP2
32407;SDS011;18869;55.970;37.502;2023-03-12T00:02:20;7.87;;;7.07;;
32407;SDS011;18869;55.970;37.502;2023-03-12T00:04:48;9.37;;;7.63;;
32407;SDS011;18869;55.970;37.502;2023-03-12T00:07:15;7.77;;;7.07;;
32407;SDS011;18869;55.970;37.502;2023-03-12T00:09:43;8.43;;;7.17;;
32407;SDS011;18869;55.970;37.502;2023-03-12T00:12:12;6.97;;;6.37;;
32407;SDS011;18869;55.970;37.502;2023-03-12T00:14:40;7.90;;;7.20;;
32407;SDS011;18869;55.970;37.502;2023-03-12T00:17:07;8.03;;;7.33;;
32407;SDS011;18869;55.970;37.502;2023-03-12T00:19:35;8.43;;;7.53;;
32407;SDS011;18869;55.970;37.502;2023-03-12T00:22:03;8.00;;;7.23;;
32407;SDS011;18869;55.970;37.502;2023-03-12T00:24:31;7.60;;;6.90;;
32407;SDS011;18869;55.970;37.502;2023-03-12T00:26:59;8.70;;;7.60;;
32407;SDS011;18869;55.970;37.502;2023-03-12T00:29:28;8.07;;;7.37;;
32407;SDS011;18869;55.970;37.502;2023-03-12T00:31:55;8.70;;;7.70;;
32407;SDS011;18869;55.970;37.502;2023-03-12T00:34:23;8.93;;;8.10;;
32407;SDS011;18869;55.970;37.502;2023-03-12T00:36:51;9.03;;;8.23;;
32407;SDS011;18869;55.970;37.502;2023-03-12T00:39:18;9.40;;;8.50;;
32407;SDS011;18869;55.970;37.502;2023-03-12T00:41:46;8.97;;;8.07;;
32407;SDS011;18869;55.970;37.502;2023-03-12T00:44:14;9.23;;;7.70;;
32407;SDS011;18869;55.970;37.502;2023-03-12T00:46:43;9.50;;;8.60;;
32407;SDS011;18869;55.970;37.502;2023-03-12T00:49:11;11.77;;;9.33;;
32407;SDS011;18869;55.970;37.502;2023-03-12T00:51:38;10.97;;;9.87;;
32407;SDS011;18869;55.970;37.502;2023-03-12T00:54:06;9.17;;;8.27;;
32407;SDS011;18869;55.970;37.502;2023-03-12T00:56:34;10.43;;;9.40;;
32407;SDS011;18869;55.970;37.502;2023-03-12T00:59:01;10.00;;;8.93;;
32407;SDS011;18869;55.970;37.502;2023-03-12T01:01:29;10.87;;;9.87;;
32407;SDS011;18869;55.970;37.502;2023-03-12T10:31:14;15.27;;;11.30;;
32407;SDS011;18869;55.970;37.502;2023-03-12T10:33:47;13.03;;;11.43;;
32407;SDS011;18869;55.970;37.502;2023-03-12T10:36:17;13.77;;;11.40;;
32407;SDS011;18869;55.970;37.502;2023-03-12T10:38:47;13.37;;;11.23;;
32407;SDS011;18869;55.970;37.502;2023-03-12T10:41:16;14.93;;;12.33;;
32407;SDS011;18869;55.970;37.502;2023-03-12T10:43:45;14.87;;;11.67;;
32407;SDS011;18869;55.970;37.502;2023-03-12T10:49:24;12.37;;;11.07;;
32407;SDS011;18869;55.970;37.502;2023-03-12T10:51:57;13.37;;;11.57;;
32407;SDS011;18869;55.970;37.502;2023-03-12T10:54:27;12.90;;;11.00;;
32407;SDS011;18869;55.970;37.502;2023-03-12T10:56:58;14.90;;;11.10;;
32407;SDS011;18869;55.970;37.502;2023-03-12T10:59:28;13.07;;;11.70;;
32407;SDS011;18869;55.970;37.502;2023-03-12T11:01:59;11.53;;;10.33;;
32407;SDS011;18869;55.970;37.502;2023-03-12T11:04:28;12.70;;;10.80;;
32407;SDS011;18869;55.970;37.502;2023-03-12T11:07:04;11.27;;;10.10;;
32407;SDS011;18869;55.970;37.502;2023-03-12T11:09:43;12.60;;;9.97;;
32407;SDS011;18869;55.970;37.502;2023-03-12T11:12:21;10.63;;;9.63;;
32407;SDS011;18869;55.970;37.502;2023-03-12T11:14:51;12.00;;;10.30;;
32407;SDS011;18869;55.970;37.502;2023-03-12T11:17:21;12.33;;;9.87;;
32407;SDS011;18869;55.970;37.502;2023-03-12T11:19:51;11.77;;;10.43;;
32407;SDS011;18869;55.970;37.502;2023-03-12T11:22:27;12.07;;;10.83;;
32407;SDS011;18869;55.970;37.502;2023-03-12T11:24:57;6.63;;;5.93;;
32407;SDS011;18869;55.970;37.502;2023-03-12T11:30:17;3.80;;;3.50;;
32407;SDS011;18869;55.970;37.502;2023-03-12T11:32:53;4.87;;;4.47;;
32407;SDS011;18869;55.970;37.502;2023-03-12T11:35:25;2.97;;;2.77;;
32407;SDS011;18869;55.970;37.502;2023-03-12T11:37:59;2.50;;;2.30;;
32407;SDS011;18869;55.970;37.502;2023-03-12T11:40:36;2.30;;;2.20;;
32407;SDS011;18869;55.970;37.502;2023-03-12T11:43:20;2.10;;;2.00;;
32407;SDS011;18869;55.970;37.502;2023-03-12T11:46:02;2.53;;;2.40;;
32407;SDS011;18869;55.970;37.502;2023-03-12T11:48:41;3.40;;;3.20;;
32407;SDS011;18869;55.970;37.502;2023-03-12T11:51:18;3.90;;;3.57;;
32407;SDS011;18869;55.970;37.502;2023-03-12T11:53:55;5.10;;;4.30;;
32407;SDS011;18869;55.970;37.502;2023-03-12T11:56:29;4.30;;;3.77;;
32407;SDS011;18869;55.970;37.502;2023-03-12T11:59:01;4.43;;;4.03;;
32407;SDS011;18869;55.970;37.502;2023-03-12T12:01:40;3.90;;;3.50;;
32407;SDS011;18869;55.970;37.502;2023-03-12T12:07:22;2.80;;;2.70;;
32407;SDS011;18869;55.970;37.502;2023-03-12T12:09:58;2.63;;;2.53;;
32407;SDS011;18869;55.970;37.502;2023-03-12T12:12:38;2.50;;;2.40;;
32407;SDS011;18869;55.970;37.502;2023-03-12T12:15:14;2.67;;;2.47;;
32407;SDS011;18869;55.970;37.502;2023-03-12T12:17:51;2.90;;;2.70;;
32407;SDS011;18869;55.970;37.502;2023-03-12T12:20:27;3.17;;;2.97;;
32407;SDS011;18869;55.970;37.502;2023-03-12T12:23:05;4.10;;;3.80;;
32407;SDS011;18869;55.970;37.502;2023-03-12T12:31:36;7.87;;;5.53;;
32407;SDS011;18869;55.970;37.502;2023-03-12T12:37:26;7.87;;;6.13;;
32407;SDS011;18869;55.970;37.502;2023-03-12T12:40:01;7.43;;;6.30;;
32407;SDS011;18869;55.970;37.502;2023-03-12T12:42:35;6.30;;;5.43;;
32407;SDS011;18869;55.970;37.502;2023-03-12T12:45:12;3.10;;;2.90;;
32407;SDS011;18869;55.970;37.502;2023-03-12T12:47:43;3.47;;;3.27;;
32407;SDS011;18869;55.970;37.502;2023-03-12T12:50:14;3.13;;;3.00;;
32407;SDS011;18869;55.970;37.502;2023-03-12T12:52:45;3.10;;;2.90;;
32407;SDS011;18869;55.970;37.502;2023-03-12T12:55:20;2.73;;;2.63;;
32407;SDS011;18869;55.970;37.502;2023-03-12T12:57:53;2.97;;;2.67;;
32407;SDS011;18869;55.970;37.502;2023-03-12T13:00:36;2.60;;;2.50;;
32407;SDS011;18869;55.970;37.502;2023-03-12T13:03:11;2.97;;;2.87;;
32407;SDS011;18869;55.970;37.502;2023-03-12T13:05:47;2.60;;;2.50;;
32407;SDS011;18869;55.970;37.502;2023-03-12T13:08:32;3.13;;;3.03;;
32407;SDS011;18869;55.970;37.502;2023-03-12T13:11:23;3.10;;;3.00;;
32407;SDS011;18869;55.970;37.502;2023-03-12T13:16:46;2.40;;;2.30;;
32407;SDS011;18869;55.970;37.502;2023-03-12T13:19:21;2.87;;;2.70;;
32407;SDS011;18869;55.970;37.502;2023-03-12T13:21:54;3.73;;;3.33;;
32407;SDS011;18869;55.970;37.502;2023-03-12T13:24:32;3.43;;;3.23;;
32407;SDS011;18869;55.970;37.502;2023-03-12T13:27:03;3.50;;;3.30;;
32407;SDS011;18869;55.970;37.502;2023-03-12T13:29:38;3.83;;;3.60;;
32407;SDS011;18869;55.970;37.502;2023-03-12T13:32:08;2.80;;;2.70;;
32407;SDS011;18869;55.970;37.502;2023-03-12T13:35:05;3.27;;;3.07;;
32407;SDS011;18869;55.970;37.502;2023-03-12T13:37:58;3.37;;;3.23;;
32407;SDS011;18869;55.970;37.502;2023-03-12T13:40:36;3.47;;;3.30;;
32407;SDS011;18869;55.970;37.502;2023-03-12T13:43:08;3.30;;;3.10;;
32407;SDS011;18869;55.970;37.502;2023-03-12T13:45:53;4.73;;;3.37;;
32407;SDS011;18869;55.970;37.502;2023-03-12T13:48:28;4.93;;;4.20;;
32407;SDS011;18869;55.970;37.502;2023-03-12T13:50:57;3.97;;;3.73;;
32407;SDS011;18869;55.970;37.502;2023-03-12T13:53:26;4.03;;;3.83;;
32407;SDS011;18869;55.970;37.502;2023-03-12T13:56:01;3.97;;;3.77;;
32407;SDS011;18869;55.970;37.502;2023-03-12T13:58:37;4.47;;;4.17;;
32407;SDS011;18869;55.970;37.502;2023-03-12T14:01:11;3.47;;;3.27;;
32407;SDS011;18869;55.970;37.502;2023-03-12T14:03:42;4.23;;;3.93;;
32407;SDS011;18869;55.970;37.502;2023-03-12T14:06:13;3.67;;;3.47;;
32407;SDS011;18869;55.970;37.502;2023-03-12T14:08:53;3.57;;;3.37;;
32407;SDS011;18869;55.970;37.502;2023-03-12T14:14:20;5.13;;;4.73;;
32407;SDS011;18869;55.970;37.502;2023-03-12T14:16:56;4.87;;;4.57;;
32407;SDS011;18869;55.970;37.502;2023-03-12T14:19:25;4.80;;;4.50;;
32407;SDS011;18869;55.970;37.502;2023-03-12T14:21:55;4.70;;;4.40;;
32407;SDS011;18869;55.970;37.502;2023-03-12T14:24:27;5.07;;;4.77;;
32407;SDS011;18869;55.970;37.502;2023-03-12T14:26:58;4.43;;;4.13;;
32407;SDS011;18869;55.970;37.502;2023-03-12T14:29:28;3.37;;;3.17;;
32407;SDS011;18869;55.970;37.502;2023-03-12T14:31:57;3.73;;;3.47;;
32407;SDS011;18869;55.970;37.502;2023-03-12T14:34:30;4.30;;;4.00;;
32407;SDS011;18869;55.970;37.502;2023-03-12T14:37:01;3.63;;;3.43;;
32407;SDS011;18869;55.970;37.502;2023-03-12T14:39:34;3.90;;;3.70;;
32407;SDS011;18869;55.970;37.502;2023-03-12T14:42:08;4.17;;;3.90;;
32407;SDS011;18869;55.970;37.502;2023-03-12T14:44:37;4.17;;;3.97;;
32407;SDS011;18869;55.970;37.502;2023-03-12T14:47:06;3.80;;;3.60;;
32407;SDS011;18869;55.970;37.502;2023-03-12T14:49:38;4.43;;;4.13;;
32407;SDS011;18869;55.970;37.502;2023-03-12T14:52:10;3.97;;;3.77;;
32407;SDS011;18869;55.970;37.502;2023-03-12T14:54:38;5.03;;;4.73;;
32407;SDS011;18869;55.970;37.502;2023-03-12T14:57:12;5.00;;;4.70;;
32407;SDS011;18869;55.970;37.502;2023-03-12T14:59:42;5.03;;;4.67;;
32407;SDS011;18869;55.970;37.502;2023-03-12T15:02:20;6.27;;;5.87;;
32407;SDS011;18869;55.970;37.502;2023-03-12T15:04:49;5.50;;;5.10;;
32407;SDS011;18869;55.970;37.502;2023-03-12T15:07:20;5.13;;;4.73;;
32407;SDS011;18869;55.970;37.502;2023-03-12T15:09:50;6.30;;;5.90;;
32407;SDS011;18869;55.970;37.502;2023-03-12T15:12:20;5.30;;;4.93;;
32407;SDS011;18869;55.970;37.502;2023-03-12T15:14:49;6.40;;;5.90;;
32407;SDS011;18869;55.970;37.502;2023-03-12T15:17:20;6.00;;;5.50;;
32407;SDS011;18869;55.970;37.502;2023-03-12T15:19:49;5.03;;;4.73;;
32407;SDS011;18869;55.970;37.502;2023-03-12T15:22:17;5.80;;;5.30;;
32407;SDS011;18869;55.970;37.502;2023-03-12T15:24:49;6.00;;;5.53;;
32407;SDS011;18869;55.970;37.502;2023-03-12T15:27:20;5.30;;;4.93;;
32407;SDS011;18869;55.970;37.502;2023-03-12T15:29:57;4.97;;;4.67;;
32407;SDS011;18869;55.970;37.502;2023-03-12T15:32:26;6.13;;;5.70;;
32407;SDS011;18869;55.970;37.502;2023-03-12T15:34:56;5.90;;;5.40;;
32407;SDS011;18869;55.970;37.502;2023-03-12T15:37:24;6.30;;;5.90;;
32407;SDS011;18869;55.970;37.502;2023-03-12T15:39:59;5.90;;;5.40;;
32407;SDS011;18869;55.970;37.502;2023-03-12T15:42:35;6.53;;;5.90;;
32407;SDS011;18869;55.970;37.502;2023-03-12T15:45:05;5.73;;;5.23;;
32407;SDS011;18869;55.970;37.502;2023-03-12T15:47:42;6.47;;;5.90;;
32407;SDS011;18869;55.970;37.502;2023-03-12T15:50:16;7.27;;;6.67;;
32407;SDS011;18869;55.970;37.502;2023-03-12T15:52:56;6.67;;;6.17;;
32407;SDS011;18869;55.970;37.502;2023-03-12T15:55:28;5.37;;;4.93;;
32407;SDS011;18869;55.970;37.502;2023-03-12T15:58:02;6.03;;;5.43;;
32407;SDS011;18869;55.970;37.502;2023-03-12T16:00:45;5.30;;;4.90;;
32407;SDS011;18869;55.970;37.502;2023-03-12T16:03:14;7.87;;;6.47;;
32407;SDS011;18869;55.970;37.502;2023-03-12T16:05:44;6.97;;;6.37;;
32407;SDS011;18869;55.970;37.502;2023-03-12T16:08:13;5.90;;;5.50;;
32407;SDS011;18869;55.970;37.502;2023-03-12T16:10:42;6.80;;;6.30;;
32407;SDS011;18869;55.970;37.502;2023-03-12T16:13:13;6.27;;;5.73;;
32407;SDS011;18869;55.970;37.502;2023-03-12T16:15:42;7.00;;;6.43;;
32407;SDS011;18869;55.970;37.502;2023-03-12T16:18:12;7.17;;;6.57;;
32407;SDS011;18869;55.970;37.502;2023-03-12T16:20:43;6.33;;;5.93;;
32407;SDS011;18869;55.970;37.502;2023-03-12T16:23:11;7.37;;;6.70;;
32407;SDS011;18869;55.970;37.502;2023-03-12T16:25:40;6.80;;;6.30;;
32407;SDS011;18869;55.970;37.502;2023-03-12T16:28:09;8.60;;;7.10;;
32407;SDS011;18869;55.970;37.502;2023-03-12T16:30:39;8.50;;;7.90;;
32407;SDS011;18869;55.970;37.502;2023-03-12T16:33:07;7.00;;;6.50;;
32407;SDS011;18869;55.970;37.502;2023-03-12T16:35:46;8.20;;;7.50;;
32407;SDS011;18869;55.970;37.502;2023-03-12T16:38:31;9.00;;;8.10;;
32407;SDS011;18869;55.970;37.502;2023-03-12T16:41:07;12.57;;;11.40;;
32407;SDS011;18869;55.970;37.502;2023-03-12T16:43:51;9.87;;;8.10;;
32407;SDS011;18869;55.970;37.502;2023-03-12T16:46:29;7.90;;;7.30;;
32407;SDS011;18869;55.970;37.502;2023-03-12T16:49:13;6.93;;;6.33;;
32407;SDS011;18869;55.970;37.502;2023-03-12T16:51:47;8.00;;;7.23;;
32407;SDS011;18869;55.970;37.502;2023-03-12T16:54:14;7.33;;;6.70;;
32407;SDS011;18869;55.970;37.502;2023-03-12T16:56:43;7.87;;;7.07;;
32407;SDS011;18869;55.970;37.502;2023-03-12T16:59:15;7.57;;;6.97;;
32407;SDS011;18869;55.970;37.502;2023-03-12T17:01:49;7.90;;;7.30;;
32407;SDS011;18869;55.970;37.502;2023-03-12T17:04:17;7.50;;;6.90;;
32407;SDS011;18869;55.970;37.502;2023-03-12T17:06:46;6.93;;;6.17;;
32407;SDS011;18869;55.970;37.502;2023-03-12T17:09:14;8.07;;;7.37;;
32407;SDS011;18869;55.970;37.502;2023-03-12T17:11:42;7.70;;;7.00;;
32407;SDS011;18869;55.970;37.502;2023-03-12T17:14:15;7.67;;;7.13;;
32407;SDS011;18869;55.970;37.502;2023-03-12T17:16:45;6.43;;;6.03;;
32407;SDS011;18869;55.970;37.502;2023-03-12T17:19:12;7.67;;;5.80;;
32407;SDS011;18869;55.970;37.502;2023-03-12T17:21:40;7.27;;;6.50;;
32407;SDS011;18869;55.970;37.502;2023-03-12T17:24:09;6.73;;;6.23;;
32407;SDS011;18869;55.970;37.502;2023-03-12T17:26:38;6.97;;;6.47;;
32407;SDS011;18869;55.970;37.502;2023-03-12T17:29:06;7.27;;;6.67;;
32407;SDS011;18869;55.970;37.502;2023-03-12T17:31:35;7.67;;;7.07;;
32407;SDS011;18869;55.970;37.502;2023-03-12T17:34:03;8.53;;;7.83;;
32407;SDS011;18869;55.970;37.502;2023-03-12T17:36:31;7.23;;;6.47;;
32407;SDS011;18869;55.970;37.502;2023-03-12T17:39:03;8.13;;;7.40;;
32407;SDS011;18869;55.970;37.502;2023-03-12T17:41:31;7.10;;;6.50;;
32407;SDS011;18869;55.970;37.502;2023-03-12T17:43:59;9.57;;;8.53;;
32407;SDS011;18869;55.970;37.502;2023-03-12T17:46:29;8.83;;;8.03;;
32407;SDS011;18869;55.970;37.502;2023-03-12T17:49:01;8.47;;;7.73;;
32407;SDS011;18869;55.970;37.502;2023-03-12T17:51:30;7.37;;;6.77;;
32407;SDS011;18869;55.970;37.502;2023-03-12T17:54:01;7.17;;;6.57;;
32407;SDS011;18869;55.970;37.502;2023-03-12T17:56:30;7.40;;;6.73;;
32407;SDS011;18869;55.970;37.502;2023-03-12T17:58:57;7.53;;;6.93;;
32407;SDS011;18869;55.970;37.502;2023-03-12T18:01:25;6.93;;;6.43;;
32407;SDS011;18869;55.970;37.502;2023-03-12T18:03:53;8.20;;;7.50;;
32407;SDS011;18869;55.970;37.502;2023-03-12T18:06:25;6.70;;;6.20;;
32407;SDS011;18869;55.970;37.502;2023-03-12T18:08:53;7.10;;;6.60;;
32407;SDS011;18869;55.970;37.502;2023-03-12T18:11:20;7.23;;;6.53;;
32407;SDS011;18869;55.970;37.502;2023-03-12T18:13:48;7.50;;;7.00;;
32407;SDS011;18869;55.970;37.502;2023-03-12T18:16:17;7.60;;;6.93;;
32407;SDS011;18869;55.970;37.502;2023-03-12T18:18:44;7.27;;;6.77;;
32407;SDS011;18869;55.970;37.502;2023-03-12T18:21:13;8.23;;;7.63;;
32407;SDS011;18869;55.970;37.502;2023-03-12T18:23:46;8.47;;;7.87;;
32407;SDS011;18869;55.970;37.502;2023-03-12T18:26:13;7.60;;;7.00;;
32407;SDS011;18869;55.970;37.502;2023-03-12T18:28:41;7.33;;;6.77;;
32407;SDS011;18869;55.970;37.502;2023-03-12T18:31:09;7.70;;;7.10;;
32407;SDS011;18869;55.970;37.502;2023-03-12T18:33:37;7.40;;;6.80;;
32407;SDS011;18869;55.970;37.502;2023-03-12T18:36:07;8.17;;;7.40;;
32407;SDS011;18869;55.970;37.502;2023-03-12T18:38:34;8.40;;;7.70;;
32407;SDS011;18869;55.970;37.502;2023-03-12T18:41:04;7.70;;;7.10;;
32407;SDS011;18869;55.970;37.502;2023-03-12T18:43:32;7.90;;;7.33;;
32407;SDS011;18869;55.970;37.502;2023-03-12T18:46:01;6.90;;;6.30;;
32407;SDS011;18869;55.970;37.502;2023-03-12T18:48:28;6.90;;;6.40;;
32407;SDS011;18869;55.970;37.502;2023-03-12T18:50:57;7.03;;;6.33;;
32407;SDS011;18869;55.970;37.502;2023-03-12T18:53:25;6.57;;;6.07;;
32407;SDS011;18869;55.970;37.502;2023-03-12T18:55:54;5.80;;;5.40;;
32407;SDS011;18869;55.970;37.502;2023-03-12T18:58:23;5.77;;;5.33;;
32407;SDS011;18869;55.970;37.502;2023-03-12T19:00:52;7.60;;;7.10;;
32407;SDS011;18869;55.970;37.502;2023-03-12T19:03:21;5.90;;;5.37;;
32407;SDS011;18869;55.970;37.502;2023-03-12T19:05:58;6.43;;;5.83;;
32407;SDS011;18869;55.970;37.502;2023-03-12T19:08:27;6.43;;;5.93;;
32407;SDS011;18869;55.970;37.502;2023-03-12T19:10:57;6.40;;;6.00;;
32407;SDS011;18869;55.970;37.502;2023-03-12T19:13:26;6.30;;;5.80;;
32407;SDS011;18869;55.970;37.502;2023-03-12T19:16:01;7.07;;;6.47;;
32407;SDS011;18869;55.970;37.502;2023-03-12T19:18:30;5.77;;;5.27;;
32407;SDS011;18869;55.970;37.502;2023-03-12T19:20:58;6.40;;;5.73;;
32407;SDS011;18869;55.970;37.502;2023-03-12T19:23:27;5.87;;;5.53;;
32407;SDS011;18869;55.970;37.502;2023-03-12T19:25:55;5.83;;;5.43;;
32407;SDS011;18869;55.970;37.502;2023-03-12T19:28:23;6.70;;;6.27;;
32407;SDS011;18869;55.970;37.502;2023-03-12T19:30:57;7.20;;;6.60;;
32407;SDS011;18869;55.970;37.502;2023-03-12T19:33:25;6.50;;;6.03;;
32407;SDS011;18869;55.970;37.502;2023-03-12T19:35:55;7.20;;;6.70;;
32407;SDS011;18869;55.970;37.502;2023-03-12T19:38:23;6.70;;;6.10;;
32407;SDS011;18869;55.970;37.502;2023-03-12T19:40:52;7.17;;;6.67;;
32407;SDS011;18869;55.970;37.502;2023-03-12T19:43:20;7.47;;;6.97;;
32407;SDS011;18869;55.970;37.502;2023-03-12T19:45:48;6.80;;;6.30;;
32407;SDS011;18869;55.970;37.502;2023-03-12T19:48:17;6.23;;;5.80;;
32407;SDS011;18869;55.970;37.502;2023-03-12T19:50:46;6.67;;;6.27;;
32407;SDS011;18869;55.970;37.502;2023-03-12T19:53:14;7.20;;;6.60;;
32407;SDS011;18869;55.970;37.502;2023-03-12T19:55:45;6.50;;;6.10;;
32407;SDS011;18869;55.970;37.502;2023-03-12T19:58:14;8.10;;;7.53;;
32407;SDS011;18869;55.970;37.502;2023-03-12T20:00:42;7.60;;;7.00;;
32407;SDS011;18869;55.970;37.502;2023-03-12T20:03:10;7.87;;;7.27;;
32407;SDS011;18869;55.970;37.502;2023-03-12T20:05:42;6.13;;;5.63;;
32407;SDS011;18869;55.970;37.502;2023-03-12T20:08:10;8.07;;;7.47;;
32407;SDS011;18869;55.970;37.502;2023-03-12T20:10:39;6.83;;;6.23;;
32407;SDS011;18869;55.970;37.502;2023-03-12T20:13:07;6.53;;;6.03;;
32407;SDS011;18869;55.970;37.502;2023-03-12T20:15:37;7.77;;;7.07;;
32407;SDS011;18869;55.970;37.502;2023-03-12T20:18:05;6.90;;;6.37;;
32407;SDS011;18869;55.970;37.502;2023-03-12T20:20:34;6.87;;;6.30;;
32407;SDS011;18869;55.970;37.502;2023-03-12T20:23:03;7.80;;;7.00;;
32407;SDS011;18869;55.970;37.502;2023-03-12T20:25:33;7.97;;;7.27;;
32407;SDS011;18869;55.970;37.502;2023-03-12T20:28:00;7.10;;;6.60;;
32407;SDS011;18869;55.970;37.502;2023-03-12T20:30:31;7.30;;;6.80;;
32407;SDS011;18869;55.970;37.502;2023-03-12T20:33:02;7.30;;;6.70;;
32407;SDS011;18869;55.970;37.502;2023-03-12T20:35:31;7.47;;;6.87;;
32407;SDS011;18869;55.970;37.502;2023-03-12T20:37:59;6.17;;;5.67;;
32407;SDS011;18869;55.970;37.502;2023-03-12T20:40:28;6.67;;;6.27;;
32407;SDS011;18869;55.970;37.502;2023-03-12T20:42:56;7.13;;;6.63;;
32407;SDS011;18869;55.970;37.502;2023-03-12T20:45:23;6.97;;;6.37;;
32407;SDS011;18869;55.970;37.502;2023-03-12T20:47:52;7.00;;;6.50;;
32407;SDS011;18869;55.970;37.502;2023-03-12T20:50:22;5.97;;;5.57;;
32407;SDS011;18869;55.970;37.502;2023-03-12T20:52:50;7.67;;;7.10;;
32407;SDS011;18869;55.970;37.502;2023-03-12T20:55:18;5.93;;;5.43;;
32407;SDS011;18869;55.970;37.502;2023-03-12T20:57:47;7.00;;;6.60;;
32407;SDS011;18869;55.970;37.502;2023-03-12T21:00:16;6.80;;;6.23;;
32407;SDS011;18869;55.970;37.502;2023-03-12T21:02:46;7.00;;;6.50;;
32407;SDS011;18869;55.970;37.502;2023-03-12T21:05:13;5.73;;;5.33;;
32407;SDS011;18869;55.970;37.502;2023-03-12T21:07:42;6.33;;;5.90;;
32407;SDS011;18869;55.970;37.502;2023-03-12T21:10:10;7.33;;;6.83;;
32407;SDS011;18869;55.970;37.502;2023-03-12T21:12:38;7.83;;;7.30;;
32407;SDS011;18869;55.970;37.502;2023-03-12T21:15:09;6.20;;;5.70;;
32407;SDS011;18869;55.970;37.502;2023-03-12T21:17:37;6.87;;;6.43;;
32407;SDS011;18869;55.970;37.502;2023-03-12T21:20:06;6.10;;;5.70;;
32407;SDS011;18869;55.970;37.502;2023-03-12T21:22:36;6.20;;;5.80;;
32407;SDS011;18869;55.970;37.502;2023-03-12T21:25:05;4.67;;;4.47;;
32407;SDS011;18869;55.970;37.502;2023-03-12T21:27:33;5.87;;;5.57;;
32407;SDS011;18869;55.970;37.502;2023-03-12T21:30:01;6.00;;;5.63;;
32407;SDS011;18869;55.970;37.502;2023-03-12T21:32:30;5.47;;;4.30;;
32407;SDS011;18869;55.970;37.502;2023-03-12T21:34:58;7.70;;;7.27;;
32407;SDS011;18869;55.970;37.502;2023-03-12T21:37:27;6.27;;;5.77;;
32407;SDS011;18869;55.970;37.502;2023-03-12T21:39:55;5.87;;;5.47;;
32407;SDS011;18869;55.970;37.502;2023-03-12T21:42:25;5.00;;;4.70;;
32407;SDS011;18869;55.970;37.502;2023-03-12T21:44:53;5.80;;;5.40;;
32407;SDS011;18869;55.970;37.502;2023-03-12T21:47:21;5.70;;;5.33;;
32407;SDS011;18869;55.970;37.502;2023-03-12T21:49:51;5.00;;;4.70;;
32407;SDS011;18869;55.970;37.502;2023-03-12T21:52:18;6.03;;;5.63;;
32407;SDS011;18869;55.970;37.502;2023-03-12T21:54:46;5.73;;;5.43;;
32407;SDS011;18869;55.970;37.502;2023-03-12T21:57:14;6.37;;;5.97;;
32407;SDS011;18869;55.970;37.502;2023-03-12T21:59:42;6.90;;;6.50;;
32407;SDS011;18869;55.970;37.502;2023-03-12T22:02:10;5.60;;;5.27;;
32407;SDS011;18869;55.970;37.502;2023-03-12T22:04:39;5.47;;;4.97;;
32407;SDS011;18869;55.970;37.502;2023-03-12T22:07:08;6.80;;;6.40;;
32407;SDS011;18869;55.970;37.502;2023-03-12T22:09:36;6.40;;;6.00;;
32407;SDS011;18869;55.970;37.502;2023-03-12T22:12:04;6.37;;;5.70;;
32407;SDS011;18869;55.970;37.502;2023-03-12T22:14:32;4.93;;;4.63;;
32407;SDS011;18869;55.970;37.502;2023-03-12T22:16:59;6.07;;;5.70;;
32407;SDS011;18869;55.970;37.502;2023-03-12T22:19:28;5.57;;;5.27;;
32407;SDS011;18869;55.970;37.502;2023-03-12T22:21:57;5.43;;;5.13;;
32407;SDS011;18869;55.970;37.502;2023-03-12T22:24:26;5.53;;;5.20;;
32407;SDS011;18869;55.970;37.502;2023-03-12T22:26:54;6.10;;;5.70;;
32407;SDS011;18869;55.970;37.502;2023-03-12T22:29:21;6.00;;;5.60;;
32407;SDS011;18869;55.970;37.502;2023-03-12T22:31:49;5.40;;;5.10;;
32407;SDS011;18869;55.970;37.502;2023-03-12T22:34:19;4.67;;;4.37;;
32407;SDS011;18869;55.970;37.502;2023-03-12T22:36:47;5.60;;;5.20;;
32407;SDS011;18869;55.970;37.502;2023-03-12T22:39:15;5.27;;;4.87;;
32407;SDS011;18869;55.970;37.502;2023-03-12T22:41:46;5.50;;;5.10;;
32407;SDS011;18869;55.970;37.502;2023-03-12T22:44:15;5.00;;;4.70;;
32407;SDS011;18869;55.970;37.502;2023-03-12T22:46:42;5.50;;;5.10;;
32407;SDS011;18869;55.970;37.502;2023-03-12T22:49:10;4.53;;;4.33;;
32407;SDS011;18869;55.970;37.502;2023-03-12T22:51:38;5.47;;;5.27;;
32407;SDS011;18869;55.970;37.502;2023-03-12T22:54:05;5.23;;;4.93;;
32407;SDS011;18869;55.970;37.502;2023-03-12T22:56:35;5.60;;;5.10;;
32407;SDS011;18869;55.970;37.502;2023-03-12T22:59:04;5.83;;;5.43;;
32407;SDS011;18869;55.970;37.502;2023-03-12T23:01:31;6.30;;;6.00;;
32407;SDS011;18869;55.970;37.502;2023-03-12T23:04:01;5.53;;;5.10;;
32407;SDS011;18869;55.970;37.502;2023-03-12T23:09:42;4.70;;;4.50;;
32407;SDS011;18869;55.970;37.502;2023-03-12T23:12:11;4.50;;;4.20;;
32407;SDS011;18869;55.970;37.502;2023-03-12T23:14:40;5.23;;;4.93;;
32407;SDS011;18869;55.970;37.502;2023-03-12T23:17:08;6.00;;;5.70;;
32407;SDS011;18869;55.970;37.502;2023-03-12T23:19:36;5.23;;;4.93;;
32407;SDS011;18869;55.970;37.502;2023-03-12T23:22:05;5.97;;;4.53;;
32407;SDS011;18869;55.970;37.502;2023-03-12T23:24:33;5.27;;;4.80;;
32407;SDS011;18869;55.970;37.502;2023-03-12T23:27:01;5.73;;;5.30;;
32407;SDS011;18869;55.970;37.502;2023-03-12T23:29:29;5.93;;;5.63;;
32407;SDS011;18869;55.970;37.502;2023-03-12T23:31:58;5.97;;;5.67;;
32407;SDS011;18869;55.970;37.502;2023-03-12T23:34:26;5.10;;;4.90;;
32407;SDS011;18869;55.970;37.502;2023-03-12T23:36:53;5.07;;;4.77;;
32407;SDS011;18869;55.970;37.502;2023-03-12T23:39:21;6.20;;;5.80;;
32407;SDS011;18869;55.970;37.502;2023-03-12T23:41:49;5.67;;;5.17;;
32407;SDS011;18869;55.970;37.502;2023-03-12T23:44:16;4.53;;;4.33;;
32407;SDS011;18869;55.970;37.502;2023-03-12T23:46:44;5.27;;;4.87;;
32407;SDS011;18869;55.970;37.502;2023-03-12T23:49:14;4.93;;;4.63;;
32407;SDS011;18869;55.970;37.502;2023-03-12T23:51:42;5.33;;;5.07;;
32407;SDS011;18869;55.970;37.502;2023-03-12T23:54:09;5.17;;;4.87;;
32407;SDS011;18869;55.970;37.502;2023-03-12T23:56:38;5.50;;;5.10;;
32407;SDS011;18869;55.970;37.502;2023-03-12T23:59:07;6.10;;;5.77;;
